Time;durP1;ratioP1;P1;durP2;ratioP2;P2;SDS_P1;SDS_P2;PMS_P1;PMS_P2;Temp;Humidity;BMP_temperature;BMP_pressure;BME280_temperature;BME280_humidity;BME280_pressure;Samples;Min_cycle;Max_cycle;Signal;HPM_P1;HPM_P2
2022/04/13 00:02:20;;;;;;;6.78;4.28;;;13.80;99.10;;;;;;5088214;28;20183;-60
2022/04/13 00:04:46;;;;;;;5.43;5.03;;;13.60;99.50;;;;;;5084065;28;20204;-60
2022/04/13 00:07:11;;;;;;;5.57;4.60;;;13.70;99.80;;;;;;5090617;28;20476;-62
2022/04/13 00:09:37;;;;;;;5.70;4.67;;;13.70;99.80;;;;;;5084389;28;20204;-61
2022/04/13 00:12:04;;;;;;;4.90;4.27;;;13.90;99.90;;;;;;5077172;28;20184;-62
2022/04/13 00:14:30;;;;;;;4.70;4.22;;;13.50;99.90;;;;;;5090792;28;20207;-62
2022/04/13 00:16:56;;;;;;;5.97;4.20;;;13.60;99.90;;;;;;5088266;28;20181;-63
2022/04/13 00:19:23;;;;;;;5.60;3.93;;;13.50;99.90;;;;;;5091399;28;20236;-61
2022/04/13 00:21:49;;;;;;;4.75;3.90;;;13.80;99.90;;;;;;5088392;28;20196;-61
2022/04/13 00:24:15;;;;;;;4.90;4.43;;;13.70;99.90;;;;;;5080226;28;20811;-62
2022/04/13 00:26:41;;;;;;;4.63;4.20;;;13.40;99.90;;;;;;5084963;28;20192;-62
2022/04/13 00:29:06;;;;;;;6.45;4.65;;;13.40;99.90;;;;;;5089172;28;20216;-62
2022/04/13 00:31:32;;;;;;;4.70;4.30;;;13.50;99.90;;;;;;5076608;28;20541;-61
2022/04/13 00:33:58;;;;;;;4.53;4.00;;;13.40;99.90;;;;;;5089077;28;20200;-61
2022/04/13 00:36:23;;;;;;;4.83;4.33;;;13.40;99.90;;;;;;5086413;28;20194;-62
2022/04/13 00:38:49;;;;;;;6.83;4.30;;;13.10;99.90;;;;;;5079315;28;20180;-61
2022/04/13 00:41:17;;;;;;;6.00;4.67;;;13.10;99.90;;;;;;5085680;28;20220;-61
2022/04/13 00:43:42;;;;;;;4.53;4.13;;;13.10;99.90;;;;;;5072206;28;20571;-61
2022/04/13 00:46:08;;;;;;;4.93;4.53;;;13.10;99.90;;;;;;5079081;28;20262;-62
2022/04/13 00:48:39;;;;;;;5.57;5.00;;;13.10;99.90;;;;;;5081810;28;20175;-61
2022/04/13 00:51:05;;;;;;;5.75;4.38;;;12.90;99.90;;;;;;5087335;28;20243;-61
2022/04/13 00:53:33;;;;;;;4.93;4.35;;;13.10;99.90;;;;;;5082896;28;20301;-61
2022/04/13 00:56:00;;;;;;;4.43;4.00;;;12.90;99.90;;;;;;5085202;28;20191;-61
2022/04/13 00:58:33;;;;;;;4.40;4.00;;;13.10;99.90;;;;;;5089086;28;20188;-61
2022/04/13 01:01:02;;;;;;;4.75;4.25;;;12.80;99.90;;;;;;5092203;28;20192;-61
2022/04/13 01:03:29;;;;;;;4.72;4.30;;;13.00;99.90;;;;;;5084998;28;20319;-61
2022/04/13 01:05:55;;;;;;;4.78;4.20;;;12.90;99.90;;;;;;5086888;28;20262;-61
2022/04/13 01:08:21;;;;;;;4.70;4.27;;;12.80;99.90;;;;;;5079278;28;20270;-61
2022/04/13 01:10:49;;;;;;;5.80;4.80;;;12.90;99.90;;;;;;5082699;28;20517;-60
2022/04/13 01:13:16;;;;;;;5.70;4.35;;;12.70;99.90;;;;;;5089512;28;20199;-60
2022/04/13 01:15:43;;;;;;;5.35;4.30;;;12.50;99.90;;;;;;5086792;28;20196;-61
2022/04/13 01:18:08;;;;;;;6.20;4.60;;;12.80;99.90;;;;;;5082461;28;20192;-60
2022/04/13 01:20:35;;;;;;;6.77;4.13;;;12.50;99.90;;;;;;5069212;28;20200;-60
2022/04/13 01:23:01;;;;;;;4.78;3.92;;;12.60;99.90;;;;;;5086984;28;20198;-61
2022/04/13 01:25:30;;;;;;;4.90;4.50;;;12.30;99.90;;;;;;5088538;28;20188;-60
2022/04/13 01:27:56;;;;;;;4.47;4.07;;;12.70;99.90;;;;;;5103173;28;20186;-60
2022/04/13 01:30:24;;;;;;;4.83;4.33;;;12.10;99.90;;;;;;5084786;28;20215;-60
2022/04/13 01:32:51;;;;;;;6.22;3.95;;;12.60;99.90;;;;;;5083870;28;20579;-60
2022/04/13 01:35:17;;;;;;;5.22;4.72;;;12.30;99.90;;;;;;5084224;28;20547;-60
2022/04/13 01:37:43;;;;;;;4.77;3.90;;;12.40;99.90;;;;;;5087535;28;20188;-62
2022/04/13 01:40:09;;;;;;;6.30;4.20;;;12.70;99.90;;;;;;5085830;28;20248;-60
2022/04/13 01:42:34;;;;;;;5.85;4.45;;;12.50;99.90;;;;;;5086893;28;20713;-60
2022/04/13 01:45:00;;;;;;;5.80;4.77;;;12.50;99.90;;;;;;5086572;28;20191;-61
2022/04/13 01:47:26;;;;;;;5.00;4.50;;;12.40;99.90;;;;;;5080160;28;20203;-60
2022/04/13 01:49:51;;;;;;;4.73;4.10;;;12.40;99.90;;;;;;5076863;28;20214;-60
2022/04/13 01:52:17;;;;;;;4.83;4.20;;;12.30;99.90;;;;;;5092315;28;20184;-61
2022/04/13 01:54:43;;;;;;;4.40;3.77;;;12.60;99.90;;;;;;5084905;28;20172;-60
2022/04/13 01:57:08;;;;;;;5.03;4.17;;;12.30;99.90;;;;;;5070328;28;20502;-61
2022/04/13 01:59:34;;;;;;;5.93;3.80;;;12.60;99.90;;;;;;5094725;28;20234;-60
2022/04/13 02:02:04;;;;;;;4.30;3.90;;;12.40;99.90;;;;;;5087522;28;21009;-60
2022/04/13 02:04:30;;;;;;;4.28;3.88;;;12.20;99.90;;;;;;5087365;28;20263;-60
2022/04/13 02:06:56;;;;;;;3.38;3.08;;;12.20;99.90;;;;;;5091633;28;20183;-60
2022/04/13 02:09:22;;;;;;;6.33;4.07;;;12.30;99.90;;;;;;5086377;28;20239;-62
2022/04/13 02:11:48;;;;;;;4.80;3.73;;;12.10;99.90;;;;;;5090274;28;20433;-61
2022/04/13 02:14:13;;;;;;;4.37;3.97;;;12.10;99.90;;;;;;5070844;28;20212;-61
2022/04/13 02:16:39;;;;;;;4.33;3.93;;;12.00;99.90;;;;;;5078120;28;20185;-61
2022/04/13 02:19:11;;;;;;;5.47;4.80;;;11.90;99.90;;;;;;5080886;28;20558;-62
2022/04/13 02:21:37;;;;;;;5.25;4.65;;;12.20;99.90;;;;;;5081150;28;20198;-61
2022/04/13 02:24:02;;;;;;;5.30;4.80;;;12.30;99.90;;;;;;5081314;28;20194;-61
2022/04/13 02:26:28;;;;;;;4.47;4.00;;;12.20;99.90;;;;;;5084249;28;20262;-61
2022/04/13 02:28:54;;;;;;;5.20;4.40;;;11.80;99.90;;;;;;5088567;28;22968;-61
2022/04/13 02:31:20;;;;;;;4.43;4.10;;;12.00;99.90;;;;;;5082137;28;20629;-61
2022/04/13 02:33:47;;;;;;;7.00;4.40;;;11.80;99.90;;;;;;5091687;28;20286;-61
2022/04/13 02:36:13;;;;;;;4.78;4.38;;;11.80;99.90;;;;;;5083381;28;20420;-61
2022/04/13 02:38:38;;;;;;;7.73;5.00;;;11.80;99.90;;;;;;5063992;28;20595;-61
2022/04/13 02:41:04;;;;;;;6.13;4.47;;;11.70;99.90;;;;;;5086996;28;20467;-60
2022/04/13 02:43:29;;;;;;;4.37;3.97;;;11.80;99.90;;;;;;5086034;28;20210;-61
2022/04/13 02:45:56;;;;;;;5.03;3.90;;;11.90;99.90;;;;;;5073676;28;20179;-61
2022/04/13 02:48:22;;;;;;;4.40;3.90;;;11.80;99.90;;;;;;5088267;28;20185;-60
2022/04/13 02:50:52;;;;;;;4.53;4.13;;;11.80;99.90;;;;;;5093227;28;20701;-60
2022/04/13 02:53:18;;;;;;;6.07;4.28;;;11.50;99.90;;;;;;5086751;28;20435;-60
2022/04/13 02:55:44;;;;;;;5.13;4.57;;;11.50;99.90;;;;;;5096094;28;20317;-60
2022/04/13 02:58:10;;;;;;;4.20;3.57;;;11.70;99.90;;;;;;5070691;28;20314;-61
2022/04/13 03:00:36;;;;;;;5.50;4.30;;;11.50;99.90;;;;;;5091066;28;20417;-61
2022/04/13 03:03:02;;;;;;;4.93;4.43;;;11.40;99.90;;;;;;5090407;28;20213;-61
2022/04/13 03:05:29;;;;;;;4.15;3.85;;;11.70;99.90;;;;;;5092205;28;20410;-61
2022/04/13 03:07:54;;;;;;;3.92;3.60;;;11.30;99.90;;;;;;5090562;28;20194;-61
2022/04/13 03:10:20;;;;;;;4.97;4.47;;;11.70;99.90;;;;;;5079399;28;20230;-62
2022/04/13 03:12:45;;;;;;;5.83;5.33;;;11.50;99.90;;;;;;5085027;28;20215;-62
2022/04/13 03:15:11;;;;;;;3.77;3.47;;;11.70;99.90;;;;;;5082036;28;20653;-61
2022/04/13 03:17:37;;;;;;;6.97;3.97;;;11.50;99.90;;;;;;5080446;28;20665;-58
2022/04/13 03:20:03;;;;;;;4.30;3.90;;;11.50;99.90;;;;;;5086087;28;20274;-60
2022/04/13 03:22:29;;;;;;;5.10;4.50;;;11.20;99.90;;;;;;5086394;28;20256;-62
2022/04/13 03:24:54;;;;;;;5.37;4.50;;;11.40;99.90;;;;;;5084067;28;20444;-59
2022/04/13 03:27:20;;;;;;;4.60;4.10;;;11.30;99.90;;;;;;5084267;28;20181;-60
2022/04/13 03:29:46;;;;;;;4.00;3.70;;;11.30;99.90;;;;;;5087513;28;20218;-61
2022/04/13 03:32:12;;;;;;;7.03;4.93;;;11.40;99.90;;;;;;5087369;28;20265;-60
2022/04/13 03:34:38;;;;;;;5.30;4.67;;;11.20;99.90;;;;;;5091204;28;20288;-61
2022/04/13 03:37:03;;;;;;;6.90;4.47;;;11.40;99.90;;;;;;5087106;28;20703;-61
2022/04/13 03:39:30;;;;;;;4.37;4.00;;;11.40;99.90;;;;;;5080408;28;20478;-62
2022/04/13 03:41:56;;;;;;;5.95;5.28;;;11.30;99.90;;;;;;5088134;28;20178;-65
2022/04/13 03:44:22;;;;;;;7.10;4.70;;;11.20;99.90;;;;;;5090940;28;20539;-60
2022/04/13 03:46:48;;;;;;;5.07;4.57;;;11.00;99.90;;;;;;5065971;28;20414;-60
2022/04/13 03:49:14;;;;;;;4.93;4.37;;;10.80;99.90;;;;;;5079556;28;20765;-61
2022/04/13 03:51:40;;;;;;;5.97;4.25;;;11.00;99.90;;;;;;5090559;28;20442;-60
2022/04/13 03:54:06;;;;;;;5.50;5.00;;;11.00;99.90;;;;;;5089648;28;20206;-61
2022/04/13 03:56:33;;;;;;;5.33;4.60;;;11.50;99.90;;;;;;5088542;28;20814;-60
2022/04/13 03:59:00;;;;;;;5.88;4.65;;;11.00;99.90;;;;;;5090591;28;20182;-61
2022/04/13 04:01:26;;;;;;;4.85;4.35;;;10.90;99.90;;;;;;5089639;28;20178;-61
2022/04/13 04:03:52;;;;;;;4.50;4.10;;;11.10;99.90;;;;;;5072536;28;20300;-61
2022/04/13 04:06:18;;;;;;;5.50;4.43;;;10.90;99.90;;;;;;5079753;28;20313;-60
2022/04/13 04:08:44;;;;;;;5.20;4.70;;;10.80;99.90;;;;;;5082124;28;20519;-61
2022/04/13 04:11:09;;;;;;;4.90;4.40;;;10.80;99.90;;;;;;5081914;28;20593;-62
2022/04/13 04:13:35;;;;;;;4.43;4.07;;;11.10;99.90;;;;;;5089819;28;20923;-61
2022/04/13 04:16:01;;;;;;;4.97;4.40;;;10.90;99.90;;;;;;5083360;28;20191;-60
2022/04/13 04:18:27;;;;;;;4.77;4.37;;;11.00;99.90;;;;;;5078273;28;20185;-68
2022/04/13 04:20:52;;;;;;;4.90;4.45;;;10.80;99.90;;;;;;5083580;28;20700;-63
2022/04/13 04:23:18;;;;;;;5.40;4.90;;;11.00;99.90;;;;;;5085714;28;20206;-63
2022/04/13 04:25:44;;;;;;;7.80;4.32;;;10.80;99.90;;;;;;5086143;28;20198;-64
2022/04/13 04:28:10;;;;;;;6.10;4.77;;;11.10;99.90;;;;;;5083955;28;20693;-64
2022/04/13 04:30:37;;;;;;;6.05;4.57;;;11.00;99.90;;;;;;5087677;28;20285;-64
2022/04/13 04:33:04;;;;;;;5.43;4.88;;;11.00;99.90;;;;;;5068666;28;21413;-65
2022/04/13 04:35:29;;;;;;;6.05;4.78;;;10.70;99.90;;;;;;5090694;28;20180;-64
2022/04/13 04:37:55;;;;;;;6.23;4.37;;;10.60;99.90;;;;;;5086380;28;20269;-62
2022/04/13 04:40:21;;;;;;;5.30;4.70;;;10.90;99.90;;;;;;5069005;28;20188;-65
2022/04/13 04:42:48;;;;;;;4.90;4.50;;;10.60;99.90;;;;;;5068929;28;20210;-64
2022/04/13 04:45:19;;;;;;;6.40;4.90;;;10.60;99.90;;;;;;5079312;28;20189;-63
2022/04/13 04:47:51;;;;;;;6.00;4.40;;;10.70;99.90;;;;;;5085976;28;20177;-64
2022/04/13 04:50:17;;;;;;;6.70;4.57;;;10.30;99.90;;;;;;5082807;28;20206;-63
2022/04/13 04:52:44;;;;;;;5.18;4.60;;;10.50;99.90;;;;;;5066893;28;20210;-64
2022/04/13 04:55:11;;;;;;;4.93;4.47;;;10.60;99.90;;;;;;5084528;28;20288;-63
2022/04/13 04:57:37;;;;;;;5.05;4.65;;;10.60;99.90;;;;;;5087167;28;20217;-67
2022/04/13 05:00:09;;;;;;;6.80;4.90;;;10.70;99.90;;;;;;5079062;28;20268;-61
2022/04/13 05:02:38;;;;;;;5.47;4.78;;;10.70;99.90;;;;;;5080454;28;20214;-63
2022/04/13 05:05:05;;;;;;;6.60;5.25;;;10.90;99.90;;;;;;5084898;28;20194;-62
2022/04/13 05:07:31;;;;;;;5.18;4.45;;;10.80;99.90;;;;;;5086105;28;20179;-62
2022/04/13 05:09:58;;;;;;;5.53;5.03;;;11.10;99.90;;;;;;5068919;28;20211;-64
2022/04/13 05:12:24;;;;;;;14.60;5.72;;;10.80;99.90;;;;;;5088531;28;20440;-62
2022/04/13 05:14:50;;;;;;;7.53;6.35;;;10.90;99.90;;;;;;5090563;28;20176;-64
2022/04/13 05:17:16;;;;;;;6.23;5.10;;;11.30;99.90;;;;;;5072050;28;20196;-63
2022/04/13 05:19:41;;;;;;;8.20;4.88;;;11.20;99.90;;;;;;5085896;28;20187;-66
2022/04/13 05:22:07;;;;;;;5.60;4.63;;;11.10;99.90;;;;;;5070136;28;20240;-66
2022/04/13 05:24:33;;;;;;;5.60;4.00;;;11.30;99.90;;;;;;5082736;28;20210;-65
2022/04/13 05:26:58;;;;;;;5.33;4.70;;;11.60;99.90;;;;;;5088429;28;20191;-67
2022/04/13 05:29:24;;;;;;;5.17;4.60;;;11.40;99.90;;;;;;5086626;28;20234;-62
2022/04/13 05:31:49;;;;;;;7.17;5.10;;;11.70;99.90;;;;;;5078571;28;20452;-62
2022/04/13 05:34:15;;;;;;;5.93;4.93;;;11.80;99.90;;;;;;5088623;28;20294;-61
2022/04/13 05:36:40;;;;;;;8.10;5.37;;;11.70;99.90;;;;;;5085874;28;20229;-61
2022/04/13 05:39:06;;;;;;;6.07;4.63;;;11.90;99.90;;;;;;5076126;28;20180;-62
2022/04/13 05:41:32;;;;;;;4.73;4.33;;;11.90;99.90;;;;;;5087048;28;20175;-61
2022/04/13 05:43:57;;;;;;;8.00;4.83;;;12.10;99.90;;;;;;5089450;28;20206;-61
2022/04/13 05:46:23;;;;;;;6.53;4.97;;;12.20;99.90;;;;;;5088006;28;20194;-62
2022/04/13 05:48:48;;;;;;;5.03;4.63;;;11.90;99.90;;;;;;5089244;28;20190;-61
2022/04/13 05:51:14;;;;;;;5.60;5.10;;;12.10;99.90;;;;;;5080650;28;20230;-65
2022/04/13 05:53:40;;;;;;;6.20;5.30;;;12.10;99.90;;;;;;5074239;28;20290;-64
2022/04/13 05:56:06;;;;;;;5.10;4.47;;;12.30;99.90;;;;;;5078351;28;20205;-65
2022/04/13 05:58:32;;;;;;;5.22;4.72;;;12.50;99.90;;;;;;5064591;28;20402;-67
2022/04/13 06:00:58;;;;;;;7.90;4.60;;;12.90;99.90;;;;;;5066431;28;20176;-63
2022/04/13 06:03:24;;;;;;;5.38;4.47;;;12.90;99.90;;;;;;5083184;28;20272;-66
2022/04/13 06:05:51;;;;;;;8.57;6.50;;;12.90;99.90;;;;;;5085529;28;20211;-64
2022/04/13 06:08:17;;;;;;;8.73;6.82;;;13.20;99.90;;;;;;5075918;28;20499;-67
2022/04/13 06:10:43;;;;;;;7.15;4.90;;;12.80;99.90;;;;;;5080279;28;20762;-66
2022/04/13 06:13:09;;;;;;;7.23;6.33;;;13.10;99.90;;;;;;5079290;28;20208;-68
2022/04/13 06:15:34;;;;;;;6.10;5.50;;;13.50;99.90;;;;;;5081060;28;20439;-63
2022/04/13 06:18:00;;;;;;;6.93;6.17;;;13.60;99.90;;;;;;5082527;28;20275;-70
2022/04/13 06:20:26;;;;;;;10.83;6.37;;;13.50;99.90;;;;;;5074391;28;20442;-63
2022/04/13 06:22:54;;;;;;;6.87;5.77;;;14.00;99.90;;;;;;5091110;28;20212;-64
2022/04/13 06:25:20;;;;;;;11.63;7.43;;;14.70;99.50;;;;;;5083878;28;20544;-63
2022/04/13 06:27:46;;;;;;;7.20;5.77;;;15.10;97.80;;;;;;5092518;28;20230;-67
2022/04/13 06:30:13;;;;;;;7.17;6.47;;;15.80;97.00;;;;;;5081486;28;20303;-69
2022/04/13 06:32:43;;;;;;;8.25;7.40;;;16.20;95.70;;;;;;5086463;28;20533;-60
2022/04/13 06:35:11;;;;;;;9.65;8.02;;;16.70;95.40;;;;;;5089237;28;20186;-61
2022/04/13 06:37:39;;;;;;;14.60;9.07;;;16.90;94.50;;;;;;5089030;28;20181;-60
2022/04/13 06:40:06;;;;;;;16.27;14.55;;;17.40;93.70;;;;;;5080764;28;20191;-59
2022/04/13 06:42:39;;;;;;;8.93;5.30;;;18.10;92.80;;;;;;5087459;28;20192;-68
2022/04/13 06:45:11;;;;;;;6.18;5.30;;;18.60;91.00;;;;;;5086363;28;20177;-70
2022/04/13 06:47:37;;;;;;;6.82;6.13;;;19.10;89.90;;;;;;5088518;28;20703;-69
2022/04/13 06:50:03;;;;;;;6.13;5.53;;;19.80;86.90;;;;;;5094471;28;20204;-70
2022/04/13 06:52:33;;;;;;;10.27;6.33;;;19.90;83.50;;;;;;5087775;28;20660;-71
2022/04/13 06:54:58;;;;;;;7.05;5.35;;;19.20;84.00;;;;;;5077300;28;20434;-69
2022/04/13 06:57:24;;;;;;;6.20;5.47;;;20.00;84.00;;;;;;5080358;28;20253;-68
2022/04/13 06:59:50;;;;;;;5.87;5.37;;;20.80;81.10;;;;;;5066849;28;20187;-65
2022/04/13 07:02:15;;;;;;;7.97;6.00;;;21.20;79.10;;;;;;5082518;28;20177;-69
2022/04/13 07:04:41;;;;;;;12.53;5.90;;;21.90;76.90;;;;;;5064362;28;20205;-68
2022/04/13 07:07:07;;;;;;;5.90;5.20;;;21.30;75.80;;;;;;5090315;28;20188;-65
2022/04/13 07:09:33;;;;;;;5.47;4.97;;;21.60;76.30;;;;;;5087475;28;20476;-64
2022/04/13 07:11:59;;;;;;;6.50;5.80;;;22.60;74.50;;;;;;5079455;28;20401;-65
2022/04/13 07:14:25;;;;;;;7.70;5.23;;;23.50;71.30;;;;;;5086617;28;20465;-65
2022/04/13 07:16:51;;;;;;;6.80;5.37;;;24.10;68.80;;;;;;5080269;28;20633;-58
2022/04/13 07:19:16;;;;;;;6.20;5.37;;;24.80;66.40;;;;;;5082153;28;20438;-59
2022/04/13 07:21:48;;;;;;;11.60;8.53;;;25.40;63.90;;;;;;5083445;28;20201;-59
2022/04/13 07:24:14;;;;;;;6.70;6.07;;;25.90;61.30;;;;;;5072921;28;20205;-58
2022/04/13 07:26:40;;;;;;;5.93;5.33;;;26.40;60.00;;;;;;5091275;28;20433;-58
2022/04/13 07:29:05;;;;;;;6.40;5.53;;;26.70;58.50;;;;;;5088965;28;21121;-59
2022/04/13 07:31:31;;;;;;;7.57;6.60;;;27.20;57.60;;;;;;5083866;28;20176;-59
2022/04/13 07:33:57;;;;;;;11.33;6.13;;;27.20;55.80;;;;;;5085790;28;20208;-59
2022/04/13 07:36:23;;;;;;;6.00;5.40;;;27.20;55.40;;;;;;5080866;28;20426;-59
2022/04/13 07:38:50;;;;;;;7.50;6.20;;;27.20;54.50;;;;;;5083641;28;20567;-59
2022/04/13 07:41:16;;;;;;;6.63;6.03;;;27.40;54.50;;;;;;5072715;28;20195;-59
2022/04/13 07:43:41;;;;;;;11.73;7.10;;;27.20;53.90;;;;;;5090040;28;20453;-59
2022/04/13 07:46:07;;;;;;;11.30;10.17;;;27.60;53.50;;;;;;5081368;28;20940;-59
2022/04/13 07:48:32;;;;;;;10.87;8.03;;;27.20;53.70;;;;;;5085005;28;20187;-59
2022/04/13 07:50:58;;;;;;;8.80;7.90;;;26.50;54.60;;;;;;5090594;28;20200;-59
2022/04/13 07:53:24;;;;;;;14.27;11.77;;;26.90;54.00;;;;;;5090057;28;20204;-59
2022/04/13 07:55:49;;;;;;;10.10;7.60;;;27.10;53.70;;;;;;5081962;28;20279;-59
2022/04/13 07:58:16;;;;;;;9.10;7.73;;;27.70;52.70;;;;;;5090579;28;20188;-59
2022/04/13 08:00:42;;;;;;;7.20;6.50;;;28.40;51.70;;;;;;5084810;28;20184;-59
2022/04/13 08:03:08;;;;;;;8.87;7.50;;;28.50;51.00;;;;;;5085583;28;20448;-59
2022/04/13 08:05:33;;;;;;;9.63;6.70;;;28.80;49.80;;;;;;5090238;28;20187;-59
2022/04/13 08:08:00;;;;;;;7.67;6.87;;;28.50;50.30;;;;;;5089579;28;20193;-59
2022/04/13 08:10:26;;;;;;;7.73;7.07;;;28.70;49.60;;;;;;5083873;28;20292;-59
2022/04/13 08:12:52;;;;;;;9.63;8.63;;;29.00;49.50;;;;;;5089140;28;20501;-59
2022/04/13 08:15:17;;;;;;;9.60;8.70;;;29.00;49.60;;;;;;5093434;28;20439;-59
2022/04/13 08:17:44;;;;;;;9.77;7.10;;;29.10;49.30;;;;;;5089287;28;20429;-59
2022/04/13 08:20:12;;;;;;;7.33;6.57;;;29.30;49.30;;;;;;5089722;28;20199;-59
2022/04/13 08:22:38;;;;;;;8.60;7.50;;;30.00;48.40;;;;;;5088526;28;20575;-60
2022/04/13 08:25:04;;;;;;;9.17;7.97;;;30.40;47.70;;;;;;5081848;28;20551;-60
2022/04/13 08:27:30;;;;;;;8.60;7.73;;;30.80;46.90;;;;;;5070382;28;20742;-60
2022/04/13 08:29:55;;;;;;;7.63;6.80;;;30.80;46.30;;;;;;5089145;28;20941;-60
2022/04/13 08:32:22;;;;;;;10.20;5.90;;;30.80;45.70;;;;;;5084966;28;20185;-60
2022/04/13 08:34:52;;;;;;;7.40;6.73;;;30.90;45.20;;;;;;5089671;28;20186;-61
2022/04/13 08:37:18;;;;;;;6.63;6.03;;;30.90;45.20;;;;;;5088848;28;20426;-61
2022/04/13 08:39:44;;;;;;;7.63;6.20;;;31.10;44.70;;;;;;5084706;28;20528;-61
2022/04/13 08:42:32;;;;;;;4.90;4.47;;;30.80;43.90;;;;;;5088729;28;20513;-60
2022/04/13 08:45:04;;;;;;;4.80;4.40;;;29.60;44.20;;;;;;5074101;28;20649;-60
2022/04/13 08:47:36;;;;;;;5.23;4.30;;;29.40;43.30;;;;;;5080058;28;20441;-60
2022/04/13 08:50:04;;;;;;;7.23;3.63;;;29.40;42.20;;;;;;5088873;28;20450;-60
2022/04/13 08:52:31;;;;;;;4.93;4.40;;;29.30;41.40;;;;;;5088154;28;20937;-60
2022/04/13 08:55:16;;;;;;;5.40;3.63;;;29.40;41.10;;;;;;5085785;28;20450;-60
2022/04/13 08:57:48;;;;;;;6.77;5.97;;;29.30;42.00;;;;;;5094116;28;20451;-60
2022/04/13 09:00:18;;;;;;;4.80;3.47;;;29.80;40.80;;;;;;5086976;28;20795;-61
2022/04/13 09:02:50;;;;;;;4.63;4.23;;;30.20;39.10;;;;;;5084656;28;20468;-60
2022/04/13 09:05:31;;;;;;;5.77;5.30;;;30.50;39.40;;;;;;5089338;28;20456;-60
2022/04/13 09:08:17;;;;;;;9.03;3.90;;;30.90;38.30;;;;;;5087906;28;20534;-60
2022/04/13 09:10:43;;;;;;;4.03;3.00;;;30.50;39.10;;;;;;5066479;28;20536;-60
2022/04/13 09:13:10;;;;;;;5.63;3.00;;;30.50;36.80;;;;;;5088842;28;20846;-60
2022/04/13 09:15:39;;;;;;;2.83;2.50;;;30.50;36.20;;;;;;5086920;28;20450;-60
2022/04/13 09:18:07;;;;;;;4.83;3.50;;;30.40;35.60;;;;;;5088794;28;20426;-58
2022/04/13 09:20:32;;;;;;;3.33;3.03;;;30.50;34.90;;;;;;5088654;28;20434;-59
2022/04/13 09:22:59;;;;;;;4.23;3.67;;;30.40;35.80;;;;;;5089377;28;20446;-59
2022/04/13 09:25:27;;;;;;;4.23;3.40;;;30.20;36.40;;;;;;5085903;28;20248;-59
2022/04/13 09:27:53;;;;;;;3.20;2.87;;;30.40;35.80;;;;;;5090561;28;20438;-59
2022/04/13 09:30:19;;;;;;;5.53;2.73;;;30.10;36.10;;;;;;5084208;28;20472;-59
2022/04/13 09:32:45;;;;;;;6.07;3.30;;;30.30;36.70;;;;;;5087036;28;20458;-59
2022/04/13 09:35:11;;;;;;;8.83;3.40;;;30.20;36.50;;;;;;5088961;28;20179;-59
2022/04/13 09:37:38;;;;;;;5.47;3.93;;;30.10;37.60;;;;;;5089532;28;20918;-59
2022/04/13 09:40:04;;;;;;;4.70;2.70;;;29.90;37.40;;;;;;5087384;28;20770;-59
2022/04/13 09:42:29;;;;;;;2.97;2.07;;;29.80;35.50;;;;;;5085204;28;21010;-59
2022/04/13 09:44:56;;;;;;;4.20;2.70;;;29.70;33.40;;;;;;5088489;28;20513;-59
2022/04/13 09:47:23;;;;;;;4.83;2.60;;;29.40;35.30;;;;;;5079741;28;20210;-61
2022/04/13 09:49:53;;;;;;;4.67;3.43;;;28.90;36.00;;;;;;5087750;28;20504;-61
2022/04/13 09:52:37;;;;;;;6.73;3.30;;;29.10;38.60;;;;;;5089389;28;20495;-60
2022/04/13 09:55:07;;;;;;;4.13;3.43;;;29.30;38.90;;;;;;5076769;28;20450;-60
2022/04/13 09:57:33;;;;;;;4.73;4.03;;;29.40;38.60;;;;;;5100746;28;20945;-60
2022/04/13 10:00:00;;;;;;;6.50;3.10;;;29.30;38.50;;;;;;5092637;28;20428;-59
2022/04/13 10:02:42;;;;;;;4.00;3.27;;;28.80;38.60;;;;;;5087327;28;20444;-62
2022/04/13 10:05:20;;;;;;;3.73;3.20;;;29.00;38.80;;;;;;5091764;28;20449;-60
2022/04/13 10:08:04;;;;;;;5.30;2.87;;;29.20;38.50;;;;;;5092091;28;20421;-60
2022/04/13 10:10:30;;;;;;;5.27;4.13;;;28.50;39.60;;;;;;5081028;28;20482;-60
2022/04/13 10:12:56;;;;;;;3.97;3.03;;;27.90;40.80;;;;;;5092676;28;20460;-59
2022/04/13 10:15:22;;;;;;;5.10;3.80;;;27.40;41.10;;;;;;5090066;28;20452;-59
2022/04/13 10:17:48;;;;;;;4.93;3.40;;;27.00;41.40;;;;;;5091923;28;20959;-62
2022/04/13 10:20:14;;;;;;;3.73;2.73;;;27.50;40.70;;;;;;5091566;28;20224;-60
2022/04/13 10:22:59;;;;;;;6.00;3.13;;;27.70;39.30;;;;;;5091416;28;20476;-59
2022/04/13 10:25:26;;;;;;;6.43;2.90;;;27.90;39.70;;;;;;5090341;28;20543;-60
2022/04/13 10:27:57;;;;;;;4.60;3.20;;;27.90;39.70;;;;;;5074456;28;20442;-60
2022/04/13 10:30:33;;;;;;;5.93;3.37;;;27.70;40.20;;;;;;5089302;28;20459;-59
2022/04/13 10:33:10;;;;;;;3.57;3.00;;;27.80;40.60;;;;;;5084443;28;20901;-59
2022/04/13 10:35:40;;;;;;;7.43;5.90;;;27.70;40.80;;;;;;5078867;28;20414;-59
2022/04/13 10:38:06;;;;;;;3.07;2.77;;;27.70;41.80;;;;;;5090967;28;20466;-59
2022/04/13 10:40:40;;;;;;;4.93;4.30;;;27.60;41.50;;;;;;5084054;28;20446;-59
2022/04/13 10:43:08;;;;;;;8.40;5.13;;;27.00;43.10;;;;;;5090987;28;20534;-60
2022/04/13 10:45:36;;;;;;;12.70;4.93;;;27.60;42.60;;;;;;5087031;28;20493;-60
2022/04/13 10:48:07;;;;;;;4.43;3.73;;;27.90;42.10;;;;;;5089838;28;20432;-60
2022/04/13 10:50:48;;;;;;;4.67;3.83;;;28.50;41.50;;;;;;5091417;28;20467;-59
2022/04/13 10:53:29;;;;;;;4.97;3.60;;;28.60;41.20;;;;;;5087372;28;20456;-60
2022/04/13 10:55:59;;;;;;;5.90;4.60;;;28.60;41.20;;;;;;5085187;28;20428;-59
2022/04/13 10:58:43;;;;;;;6.30;3.63;;;28.60;41.70;;;;;;5099693;28;20451;-60
2022/04/13 11:01:15;;;;;;;4.63;3.70;;;29.10;41.20;;;;;;5072019;28;20439;-59
2022/04/13 11:03:41;;;;;;;12.13;4.73;;;29.20;41.20;;;;;;5093035;28;20626;-60
2022/04/13 11:06:09;;;;;;;5.53;5.03;;;29.20;41.70;;;;;;5090687;28;20438;-61
2022/04/13 11:08:51;;;;;;;5.53;4.03;;;29.40;41.00;;;;;;5068654;28;20939;-61
2022/04/13 11:11:27;;;;;;;6.07;4.13;;;29.50;41.50;;;;;;5078573;28;20831;-58
2022/04/13 11:13:53;;;;;;;7.53;4.40;;;29.40;41.70;;;;;;5087012;28;20442;-61
2022/04/13 11:16:23;;;;;;;6.20;4.17;;;29.40;41.60;;;;;;5088446;28;20442;-61
2022/04/13 11:19:04;;;;;;;4.67;3.33;;;30.00;41.00;;;;;;5090980;28;20183;-60
2022/04/13 11:21:34;;;;;;;5.30;3.97;;;28.70;42.00;;;;;;5091212;28;20929;-59
2022/04/13 11:24:00;;;;;;;7.30;3.40;;;29.00;41.70;;;;;;5089739;28;20530;-59
2022/04/13 11:26:34;;;;;;;5.20;3.90;;;29.00;41.20;;;;;;5087001;28;20482;-59
2022/04/13 11:29:12;;;;;;;4.30;3.77;;;28.70;41.20;;;;;;5090204;28;20190;-59
2022/04/13 11:31:59;;;;;;;4.47;3.23;;;28.70;41.70;;;;;;5059763;28;20433;-59
2022/04/13 11:34:29;;;;;;;7.03;3.70;;;28.20;42.40;;;;;;5090538;28;20444;-59
2022/04/13 11:36:59;;;;;;;5.80;4.20;;;28.20;42.30;;;;;;5090021;28;20441;-59
2022/04/13 11:39:47;;;;;;;5.83;3.50;;;28.30;42.90;;;;;;5075487;28;20428;-59
2022/04/13 11:42:28;;;;;;;3.30;3.00;;;27.90;42.20;;;;;;5084734;28;20822;-59
2022/04/13 11:45:04;;;;;;;5.87;2.97;;;27.40;42.20;;;;;;5090851;28;20744;-59
2022/04/13 11:47:46;;;;;;;5.63;2.80;;;27.80;42.20;;;;;;5083255;28;21017;-60
2022/04/13 11:50:14;;;;;;;8.10;3.67;;;27.80;42.40;;;;;;5088172;28;20899;-60
2022/04/13 11:52:53;;;;;;;5.63;3.13;;;27.60;43.00;;;;;;5089839;28;20798;-60
2022/04/13 11:55:40;;;;;;;4.13;3.83;;;28.00;42.00;;;;;;5078478;28;20966;-60
2022/04/13 11:58:09;;;;;;;3.73;2.90;;;28.20;42.00;;;;;;5101939;28;20414;-60
2022/04/13 12:01:19;;;;;;;5.47;2.97;;;28.10;41.60;;;;;;5085790;28;20433;-60
2022/04/13 12:03:45;;;;;;;5.40;4.17;;;28.10;41.50;;;;;;5077188;28;20475;-60
2022/04/13 12:06:14;;;;;;;3.10;2.50;;;27.90;41.90;;;;;;5089717;28;20437;-60
2022/04/13 12:08:43;;;;;;;4.93;2.97;;;28.00;41.70;;;;;;5083537;28;20269;-59
2022/04/13 12:11:18;;;;;;;6.43;2.67;;;27.70;41.50;;;;;;5090186;28;20477;-60
2022/04/13 12:13:54;;;;;;;4.93;2.80;;;27.10;41.90;;;;;;5089347;28;20498;-59
2022/04/13 12:16:28;;;;;;;2.90;2.67;;;26.80;43.00;;;;;;5088772;28;20425;-60
2022/04/13 12:18:59;;;;;;;3.23;2.30;;;26.70;43.00;;;;;;5089191;28;20449;-59
2022/04/13 12:21:26;;;;;;;6.40;5.80;;;26.60;42.60;;;;;;5089732;28;20448;-60
2022/04/13 12:23:53;;;;;;;4.80;3.00;;;26.50;43.10;;;;;;5084390;28;20473;-60
2022/04/13 12:26:34;;;;;;;12.67;11.40;;;26.40;43.30;;;;;;5089789;28;20911;-60
2022/04/13 12:29:09;;;;;;;3.77;3.07;;;26.10;42.50;;;;;;5091368;28;20425;-59
2022/04/13 12:31:43;;;;;;;10.80;7.50;;;25.80;42.90;;;;;;5077695;28;20511;-60
2022/04/13 12:34:14;;;;;;;5.67;2.50;;;25.70;43.80;;;;;;5089590;28;20476;-59
2022/04/13 12:36:40;;;;;;;7.30;2.67;;;25.90;43.70;;;;;;5072572;28;20545;-59
2022/04/13 12:39:09;;;;;;;5.93;5.33;;;26.10;43.80;;;;;;5083650;28;20874;-63
2022/04/13 12:41:35;;;;;;;4.30;3.87;;;25.80;43.90;;;;;;5081675;28;20274;-63
2022/04/13 12:44:01;;;;;;;5.10;2.27;;;25.90;43.60;;;;;;5087338;28;21036;-63
2022/04/13 12:46:32;;;;;;;7.03;2.40;;;25.70;43.20;;;;;;5081360;28;20430;-63
2022/04/13 12:48:59;;;;;;;4.50;2.50;;;25.60;43.90;;;;;;5083865;28;20219;-63
2022/04/13 12:51:30;;;;;;;3.00;2.70;;;25.60;44.10;;;;;;5085843;28;20469;-65